Latest Weather Observations for Albany Airport

IDW60801

Issued at 11:33 pm WST Friday 3 July 2015 (issued every 30 minutes, with the page automatically refreshed every 10 minutes)

About weather observations | Map of weather stations | Latest weather observations for WA | Other Formats
Station Details ID: 009999 Name: ALBANY AIRPORT Lat: -34.94 Lon: 117.82 Height: 68.4 m
Data from the previous 72 hours. | See also: Recent months at Albany Airport
Date/Time
WST
Temp
°C
App
Temp
°C
Dew
Point
Rel
Hum
%
Delta-T
°C
Wind Press
QNH
hPa
Press
MSL
hPa
Rain
since 9 am
mm
Dir
 
Spd
km/h
Gust
km/h
Spd
kts
Gust
kts
03/11:30pm 11.5 9.5 11.5 100 0.0 NW 13 13 7 7 1021.5 - 0.6
03/11:00pm 12.3 11.8 12.1 99 0.1 W 6 7 3 4 1021.6 - 0.6
03/10:46pm 12.8 12.5 12.6 99 0.1 WSW 6 7 3 4 1021.7 - 0.6
03/10:30pm 13.3 12.6 13.1 99 0.1 WSW 9 9 5 5 1021.6 - 0.6
03/10:00pm 13.1 12.3 12.9 99 0.1 WNW 9 11 5 6 1021.6 - 0.6
03/09:30pm 14.1 12.9 13.9 99 0.1 NW 13 15 7 8 1021.9 - 0.6
03/09:22pm 14.1 12.9 13.9 99 0.1 NW 13 15 7 8 1021.8 - 0.6
03/09:00pm 12.9 12.1 12.9 100 0.0 NW 9 11 5 6 1021.7 1021.9 0.6
03/08:30pm 12.9 11.7 12.7 99 0.1 NW 11 13 6 7 1021.9 - 0.6
03/08:26pm 12.9 11.7 12.9 100 0.0 NW 11 11 6 6 1021.9 - 0.6
03/08:00pm 14.4 13.6 14.0 97 0.2 NW 11 13 6 7 1021.9 - 0.6
03/07:30pm 14.5 14.2 14.3 99 0.1 WNW 9 13 5 7 1022.0 - 0.6
03/07:00pm 14.8 14.1 14.3 97 0.3 W 11 15 6 8 1022.0 - 0.6
03/06:30pm 15.1 14.5 14.6 97 0.3 W 11 13 6 7 1021.7 - 0.6
03/06:00pm 15.4 14.6 15.1 98 0.2 W 13 17 7 9 1021.4 1021.6 0.6
03/05:30pm 15.5 15.8 15.0 97 0.3 W 7 9 4 5 1021.2 - 0.6
03/05:00pm 15.4 15.2 14.7 96 0.4 WSW 9 11 5 6 1021.0 - 0.6
03/04:42pm 15.9 15.4 14.9 94 0.6 SW 11 13 6 7 1020.7 - 0.6
03/04:30pm 15.9 15.1 15.2 96 0.4 SW 13 17 7 9 1020.6 - 0.6
03/04:17pm 15.9 15.6 15.4 97 0.3 SW 11 15 6 8 1020.7 - 0.6
03/04:00pm 15.9 15.2 15.4 97 0.3 SW 13 17 7 9 1020.7 - 0.6
03/03:30pm 16.9 16.5 16.1 95 0.5 WSW 13 20 7 11 1020.3 - 0.2
03/03:20pm 16.3 15.6 15.4 94 0.5 SW 13 19 7 10 1020.2 - 0.0
03/03:00pm 16.9 15.7 15.0 88 1.1 SW 15 22 8 12 1020.1 1020.3 0.0
03/02:30pm 17.2 15.1 15.1 87 1.2 SW 20 24 11 13 1020.0 - 0.0
03/02:00pm 18.4 17.3 14.4 77 2.3 W 13 19 7 10 1019.7 - 0.0
03/01:30pm 18.0 15.8 14.3 79 2.1 W 19 24 10 13 1019.7 - 0.0
03/01:00pm 17.4 15.7 14.6 83 1.6 W 17 24 9 13 1019.9 - 0.0
03/12:30pm 18.0 16.4 16.0 88 1.2 WNW 19 24 10 13 1020.4 - 0.0
03/12:00pm 17.8 16.2 15.0 84 1.6 W 17 20 9 11 1020.7 1020.9 0.0
03/11:30am 16.8 14.8 14.9 88 1.1 NW 19 24 10 13 1020.9 - 0.0
03/11:00am 16.2 15.1 15.2 94 0.6 WNW 15 20 8 11 1021.1 - 0.0
03/10:50am 16.2 15.1 15.3 94 0.5 WNW 15 20 8 11 1021.2 - 0.0
03/10:30am 15.9 14.3 15.0 94 0.5 WNW 17 24 9 13 1021.4 - 0.0
03/10:19am 16.5 14.7 14.4 87 1.2 WNW 17 24 9 13 1021.3 - 0.0
03/10:00am 15.9 14.7 14.0 88 1.1 NW 13 17 7 9 1021.4 - 0.0
03/09:53am 15.7 14.5 13.9 89 1.0 NW 13 17 7 9 1021.4 - 0.0
03/09:30am 15.2 13.6 13.8 91 0.8 NW 15 20 8 11 1021.4 - 0.0
03/09:00am 14.4 12.1 13.1 92 0.7 NW 17 22 9 12 1021.3 1021.5 0.4
03/08:30am 14.1 11.7 12.6 91 0.8 NW 17 22 9 12 1021.2 - 0.4
03/08:00am 13.2 11.8 12.3 94 0.5 NNW 11 13 6 7 1021.0 - 0.4
03/07:30am 11.9 10.6 11.3 96 0.3 NW 9 13 5 7 1020.6 - 0.4
03/07:00am 11.6 9.8 10.8 95 0.4 NW 11 13 6 7 1020.3 - 0.4
03/06:30am 12.4 9.6 11.3 93 0.6 WNW 17 19 9 10 1020.2 - 0.4
03/05:30am 11.5 9.3 10.7 95 0.4 NW 13 17 7 9 1019.8 - 0.4
03/05:00am 9.6 8.1 9.0 96 0.3 NNW 7 9 4 5 1019.7 - 0.4
03/04:30am 10.6 8.1 9.6 93 0.5 NW 13 13 7 7 1019.8 - 0.4
03/04:00am 11.2 8.3 9.8 91 0.7 NW 15 17 8 9 1020.0 - 0.4
03/03:30am 10.9 8.3 9.5 91 0.7 NW 13 15 7 8 1020.0 - 0.4
03/03:00am 10.1 7.4 8.9 92 0.6 NW 13 15 7 8 1020.1 1020.3 0.4
03/02:30am 10.0 7.6 8.6 91 0.7 WNW 11 13 6 7 1020.2 - 0.4
03/02:00am 10.8 8.4 8.8 87 1.0 NNW 11 13 6 7 1020.0 - 0.4
03/01:30am 10.8 8.4 8.8 87 1.0 N 11 13 6 7 1020.2 - 0.4
03/01:00am 11.0 9.5 9.0 87 1.0 NW 7 11 4 6 1020.4 - 0.4
03/12:30am 11.9 10.0 9.1 83 1.4 WNW 9 13 5 7 1020.5 - 0.4
03/12:00am 13.3 10.3 9.2 76 2.1 NNW 15 20 8 11 1020.5 1020.7 0.4
 
Date/Time
WST
Temp
°C
App
Temp
°C
Dew
Point
Rel
Hum
%
Delta-T
°C
Wind Press
QNH
hPa
Press
MSL
hPa
Rain
since 9 am
mm
Dir
 
Spd
km/h
Gust
km/h
Spd
kts
Gust
kts
02/11:30pm 13.8 10.4 9.3 74 2.3 NNW 17 26 9 14 1020.5 - 0.4
02/11:00pm 14.2 10.8 9.3 72 2.5 NNW 17 22 9 12 1020.7 - 0.4
02/10:30pm 14.2 10.5 9.3 72 2.5 N 19 22 10 12 1020.8 - 0.4
02/10:00pm 14.2 10.8 9.3 72 2.5 NNW 17 24 9 13 1020.9 - 0.4
02/09:30pm 14.0 10.6 9.3 73 2.4 N 17 19 9 10 1021.0 - 0.4
02/09:00pm 13.3 10.8 9.6 78 1.9 NNW 13 15 7 8 1021.1 1021.3 0.4
02/08:30pm 12.7 9.7 9.1 79 1.8 NNW 15 19 8 10 1021.0 - 0.4
02/08:00pm 11.6 10.2 9.4 86 1.1 N 7 9 4 5 1020.8 - 0.4
02/07:30pm 11.1 11.0 9.3 89 0.9 CALM 0 4 0 2 1020.6 - 0.4
02/07:00pm 11.2 8.9 9.0 86 1.1 N 11 11 6 6 1020.4 - 0.4
02/06:30pm 12.9 10.3 9.4 79 1.8 N 13 15 7 8 1020.2 - 0.4
02/06:00pm 12.3 9.9 10.0 86 1.2 N 13 15 7 8 1020.3 1020.5 0.4
02/05:30pm 13.9 11.6 10.5 80 1.8 N 13 15 7 8 1020.3 - 0.4
02/05:00pm 15.1 13.0 11.2 77 2.1 N 13 17 7 9 1020.5 - 0.4
02/04:30pm 16.0 15.4 12.4 79 2.0 NNE 7 11 4 6 1020.6 - 0.4
02/04:00pm 16.8 16.2 12.3 75 2.5 N 7 9 4 5 1020.6 - 0.4
02/03:30pm 17.0 15.4 11.7 71 2.9 N 11 13 6 7 1020.4 - 0.4
02/03:00pm 17.1 15.0 11.0 67 3.3 N 13 17 7 9 1020.6 1020.8 0.4
02/02:30pm 17.8 16.3 12.0 69 3.2 N 11 15 6 8 1020.5 - 0.4
02/02:00pm 17.8 15.6 10.7 63 3.8 N 13 17 7 9 1020.6 - 0.4
02/01:30pm 17.7 15.2 11.2 65 3.5 N 15 19 8 10 1020.7 - 0.4
02/01:00pm 16.8 16.2 13.6 81 1.8 E 9 13 5 7 1020.9 - 0.4
02/12:30pm 15.8 15.6 13.5 86 1.3 ENE 7 9 4 5 1021.6 - 0.4
02/12:00pm 15.3 15.0 13.3 88 1.1 ENE 7 9 4 5 1022.1 1022.3 0.4
02/11:30am 14.8 14.3 12.8 88 1.1 ENE 7 9 4 5 1022.5 - 0.4
02/11:00am 14.1 13.2 12.6 91 0.8 NE 9 11 5 6 1023.0 - 0.4
02/10:30am 13.2 12.2 12.3 94 0.5 NE 9 13 5 7 1023.3 - 0.4
02/10:00am 12.7 11.2 11.8 94 0.5 NE 11 13 6 7 1023.3 - 0.4
02/09:30am 12.4 11.2 11.6 95 0.4 NE 9 11 5 6 1023.4 - 0.2
02/09:00am 12.4 11.5 11.5 94 0.5 ENE 7 9 4 5 1023.3 1023.5 1.2
02/08:30am 12.2 10.9 11.1 93 0.6 NE 9 11 5 6 1023.5 - 1.2
02/08:20am 12.1 10.8 11.1 94 0.5 NE 9 11 5 6 1023.5 - 1.2
02/08:03am 12.0 10.2 11.0 94 0.5 N 11 13 6 7 1023.6 - 1.0
02/08:00am 12.1 10.3 10.9 92 0.6 N 11 13 6 7 1023.6 - 0.8
02/07:30am 12.5 10.2 10.4 87 1.1 N 13 19 7 10 1023.5 - 0.8
02/07:00am 12.6 10.4 10.7 88 1.0 N 13 15 7 8 1023.7 - 0.6
02/06:30am 13.5 9.9 10.0 79 1.8 N 19 26 10 14 1023.6 - 0.4
02/06:00am 12.8 10.6 10.9 88 1.0 N 13 17 7 9 1023.5 1023.7 0.4
02/05:30am 12.9 11.5 11.0 88 1.0 N 9 11 5 6 1023.0 - 0.0
02/05:00am 13.1 11.7 11.0 87 1.1 N 9 11 5 6 1022.8 - 0.0
02/04:30am 13.3 11.6 11.2 87 1.1 N 11 13 6 7 1022.5 - 0.0
02/04:00am 13.2 12.3 12.5 95 0.4 NNE 9 11 5 6 1022.5 - 0.0
02/03:30am 13.3 12.4 12.6 95 0.4 N 9 11 5 6 1022.7 - 0.0
02/03:00am 13.2 12.3 12.6 96 0.3 NNE 9 11 5 6 1023.0 1023.2 0.0
02/02:30am 13.5 12.7 12.8 95 0.4 NE 9 9 5 5 1023.2 - 0.0
02/02:00am 13.9 13.3 13.4 97 0.3 NNE 9 11 5 6 1023.3 - 0.0
02/01:30am 14.5 13.6 13.8 96 0.4 NE 11 13 6 7 1023.3 - 0.0
02/01:00am 14.5 13.2 13.8 96 0.4 ENE 13 15 7 8 1023.3 - 0.0
02/12:30am 14.2 13.3 13.8 97 0.2 ENE 11 13 6 7 1023.6 - 0.0
02/12:00am 14.2 13.7 13.8 97 0.2 NE 9 9 5 5 1024.1 1024.3 0.0
 
Date/Time
WST
Temp
°C
App
Temp
°C
Dew
Point
Rel
Hum
%
Delta-T
°C
Wind Press
QNH
hPa
Press
MSL
hPa
Rain
since 9 am
mm
Dir
 
Spd
km/h
Gust
km/h
Spd
kts
Gust
kts
01/11:30pm 14.3 13.8 13.9 97 0.2 NE 9 11 5 6 1024.4 - 0.0
01/11:06pm 13.8 12.8 13.4 97 0.2 ENE 11 13 6 7 1024.6 - 0.0
01/11:00pm 14.2 13.7 13.8 97 0.2 ENE 9 11 5 6 1024.5 - 0.0
01/10:46pm 14.2 14.0 13.7 97 0.3 ENE 7 9 4 5 1024.5 - 0.0
01/10:30pm 14.5 14.4 14.0 97 0.3 E 7 9 4 5 1024.4 - 0.0
01/10:00pm 15.0 14.7 14.3 96 0.4 ENE 9 9 5 5 1024.3 - 0.0
01/09:30pm 15.2 14.5 14.3 94 0.5 ENE 11 13 6 7 1024.4 - 0.0
01/09:00pm 15.5 14.8 14.4 93 0.6 ENE 11 13 6 7 1024.4 1024.6 0.0
01/08:30pm 15.5 14.8 14.4 93 0.6 ENE 11 13 6 7 1024.5 - 0.0
01/08:00pm 15.5 14.8 14.3 92 0.7 ENE 11 13 6 7 1024.6 - 0.0
01/07:30pm 15.7 15.0 14.3 91 0.8 ENE 11 13 6 7 1024.8 - 0.0
01/07:00pm 15.6 15.3 14.4 93 0.7 ENE 9 13 5 7 1024.6 - 0.0
01/06:30pm 15.9 14.9 14.5 91 0.8 ENE 13 15 7 8 1024.2 - 0.0
01/06:00pm 16.0 15.3 14.4 90 0.9 E 11 13 6 7 1024.0 1024.2 0.0
01/05:30pm 16.3 15.6 14.2 87 1.2 E 11 15 6 8 1023.9 - 0.0
01/05:00pm 16.7 15.5 13.9 83 1.6 E 13 19 7 10 1023.8 - 0.0
01/04:30pm 16.7 15.6 14.4 86 1.3 ESE 13 15 7 8 1023.2 - 0.0
01/04:00pm 17.7 15.8 14.2 80 2.0 ESE 17 20 9 11 1023.1 - 0.0
01/03:30pm 18.3 17.4 14.9 80 2.0 SE 13 17 7 9 1023.4 - 0.0
01/03:00pm 18.2 16.9 14.7 80 2.0 SE 15 19 8 10 1023.3 1023.5 0.0
01/02:30pm 19.3 18.1 14.1 72 3.0 ESE 13 17 7 9 1023.2 - 0.0
01/02:00pm 19.7 18.7 12.2 62 4.2 ENE 9 11 5 6 1023.3 - 0.0
01/01:30pm 20.6 18.5 11.3 55 5.1 NE 13 17 7 9 1023.5 - 0.0
01/01:00pm 20.1 18.9 11.6 58 4.7 ENE 9 11 5 6 1023.4 - 0.0
01/12:30pm 19.6 18.4 11.6 60 4.4 ENE 9 13 5 7 1023.8 - 0.0
01/12:00pm 19.3 17.8 11.9 62 4.1 NE 11 15 6 8 1024.2 1024.4 0.0
01/11:30am 18.7 16.8 11.8 64 3.8 ENE 13 17 7 9 1024.3 - 0.0
01/11:00am 18.1 16.6 11.9 67 3.4 ENE 11 15 6 8 1024.6 - 0.0
01/10:30am 16.7 16.0 11.9 73 2.6 NE 7 11 4 6 1025.0 - 0.0
01/10:00am 15.9 15.1 11.0 72 2.6 E 6 7 3 4 1025.1 - 0.0
01/09:30am 14.9 13.8 10.7 76 2.2 E 7 9 4 5 1024.9 - 0.0
01/09:00am 12.7 11.7 10.2 85 1.3 NE 6 7 3 4 1024.9 1025.1 0.0
01/08:30am 10.0 8.1 9.0 93 0.5 NNE 9 11 5 6 1024.7 - 0.0
01/08:00am 8.0 7.4 7.4 96 0.3 CALM 0 9 0 5 1024.5 - 0.0
01/07:30am 7.7 7.0 7.1 96 0.3 CALM 0 0 0 0 1024.4 - 0.0
01/07:00am 7.6 6.9 6.9 95 0.3 CALM 0 0 0 0 1024.3 - 0.0
01/06:30am 7.6 6.9 6.9 95 0.3 CALM 0 0 0 0 1024.1 - 0.0
01/06:00am 7.1 5.0 6.7 97 0.2 N 7 9 4 5 1024.0 1024.2 0.0
01/05:30am 7.5 5.1 7.1 97 0.2 NNW 9 9 5 5 1023.7 - 0.0
01/05:00am 7.8 5.1 7.4 97 0.2 N 11 13 6 7 1023.3 - 0.0
01/04:30am 7.7 5.7 7.3 97 0.2 N 7 11 4 6 1023.2 - 0.0
01/04:00am 8.5 8.0 7.9 96 0.3 CALM 0 0 0 0 1023.5 - 0.0
01/03:30am 8.6 7.8 8.0 96 0.3 NNE 2 7 1 4 1023.4 - 0.0
01/03:00am 8.9 7.4 8.3 96 0.3 N 6 9 3 5 1023.7 1023.9 0.0
01/02:30am 9.3 7.7 8.0 92 0.6 NNW 6 7 3 4 1023.6 - 0.0
01/02:00am 9.7 9.1 8.9 95 0.4 W 2 6 1 3 1023.5 - 0.0
01/01:30am 9.4 9.0 8.4 93 0.5 CALM 0 0 0 0 1023.7 - 0.0
01/01:00am 9.8 9.2 8.8 93 0.5 NW 2 7 1 4 1023.6 - 0.0
01/12:30am 10.2 9.8 8.3 88 0.9 CALM 0 0 0 0 1023.3 - 0.0
01/12:00am 10.3 10.1 8.9 91 0.7 CALM 0 0 0 0 1023.5 1023.7 0.0

Other Formats:

Comma delimited format used in spreadsheet applications
http://www.bom.gov.au/fwo/IDW60801/IDW60801.94802.axf

JavaScript Object Notation format (JSON) in row-major order
http://www.bom.gov.au/fwo/IDW60801/IDW60801.94802.json